Time;durP1;ratioP1;P1;durP2;ratioP2;P2;SDS_P1;SDS_P2;PMS_P1;PMS_P2;Temp;Humidity;BMP_temperature;BMP_pressure;BME280_temperature;BME280_humidity;BME280_pressure;Samples;Min_cycle;Max_cycle;Signal;HPM_P1;HPM_P2
2023/10/06 06:39:34;;;;;;;10.68;3.70;;;;;;;8.89;80.97;97611.16;2095329;27;20590;-66
2023/10/06 06:41:34;;;;;;;12.25;3.90;;;;;;;9.20;80.12;97607.88;2116537;27;20561;-66
2023/10/06 06:43:33;;;;;;;15.55;4.60;;;;;;;9.23;79.66;97607.78;2089644;28;20574;-66
2023/10/06 06:45:36;;;;;;;10.77;3.80;;;;;;;9.32;78.10;97605.81;2083715;28;20554;-66
2023/10/06 06:46:38;;;;;;;9.02;3.92;;;;;;;9.69;76.98;97606.66;2083946;28;20212;-66
2023/10/06 06:47:43;;;;;;;15.63;4.80;;;;;;;9.80;76.56;97607.22;2078969;28;20243;-66
2023/10/06 06:48:46;;;;;;;9.85;3.60;;;;;;;10.08;75.52;97605.63;2080540;28;20243;-66
2023/10/06 06:49:48;;;;;;;7.00;3.28;;;;;;;9.91;75.47;97606.09;2082373;28;20225;-66
2023/10/06 06:50:50;;;;;;;12.07;3.80;;;;;;;9.80;75.93;97606.34;2079919;28;20197;-66
2023/10/06 06:51:53;;;;;;;11.35;4.28;;;;;;;10.01;75.61;97609.31;2080641;28;20545;-66
2023/10/06 06:52:56;;;;;;;10.23;3.92;;;;;;;10.03;76.02;97612.72;2083113;28;20201;-66
2023/10/06 06:53:57;;;;;;;10.18;4.05;;;;;;;10.30;75.45;97611.97;2081503;28;20197;-66
2023/10/06 06:54:59;;;;;;;14.93;4.13;;;;;;;10.55;74.52;97611.31;2079052;28;20708;-66
2023/10/06 06:56:00;;;;;;;11.07;3.47;;;;;;;10.74;74.52;97613.34;2082894;28;20632;-66
2023/10/06 06:57:02;;;;;;;7.70;3.75;;;;;;;10.67;74.43;97607.47;2082151;28;20197;-66
2023/10/06 06:58:10;;;;;;;9.15;4.30;;;;;;;10.81;73.77;97612.28;2078794;28;20258;-66
2023/10/06 06:59:12;;;;;;;12.90;4.88;;;;;;;11.10;73.98;97605.31;2082836;28;20208;-66
2023/10/06 07:00:21;;;;;;;21.50;3.70;;;;;;;11.39;73.06;97608.75;2078779;28;20197;-66
2023/10/06 07:01:23;;;;;;;11.50;4.30;;;;;;;11.75;71.83;97608.41;2079892;28;20716;-66
2023/10/06 07:02:24;;;;;;;9.77;3.53;;;;;;;11.69;71.83;97611.25;2078732;28;20201;-66
2023/10/06 07:03:26;;;;;;;14.23;4.30;;;;;;;12.23;70.79;97607.63;2082058;28;20232;-66
2023/10/06 07:04:30;;;;;;;8.65;3.88;;;;;;;12.12;70.54;97601.94;2082011;28;20608;-66
2023/10/06 07:05:34;;;;;;;12.55;4.15;;;;;;;12.15;70.84;97603.59;2082695;28;20266;-66
2023/10/06 07:06:35;;;;;;;10.98;4.15;;;;;;;12.31;71.23;97609.97;2082801;28;20201;-66
2023/10/06 07:07:40;;;;;;;13.60;4.45;;;;;;;12.76;70.01;97607.47;2082715;28;20652;-66
2023/10/06 07:08:43;;;;;;;12.57;4.38;;;;;;;13.05;68.47;97598.47;2082052;28;20200;-66
2023/10/06 07:09:46;;;;;;;11.20;4.30;;;;;;;13.21;67.25;97591.69;2081375;28;20289;-66
2023/10/06 07:10:52;;;;;;;11.98;3.90;;;;;;;13.41;66.75;97587.47;2081313;28;20284;-66
2023/10/06 07:11:57;;;;;;;20.17;4.18;;;;;;;12.98;68.18;97597.03;2083093;28;20193;-66
2023/10/06 07:12:58;;;;;;;15.90;3.97;;;;;;;12.85;68.66;97600.13;2078834;28;20573;-66
2023/10/06 07:14:00;;;;;;;12.05;3.63;;;;;;;13.12;68.10;97593.84;2079048;28;20284;-66
2023/10/06 07:15:02;;;;;;;30.52;4.60;;;;;;;13.05;68.15;97591.47;2082590;28;20444;-66
2023/10/06 07:16:05;;;;;;;10.20;4.60;;;;;;;13.65;67.72;97601.31;2083998;28;20243;-66
2023/10/06 07:17:07;;;;;;;10.52;4.03;;;;;;;14.07;66.78;97604.81;2084063;28;20197;-66
2023/10/06 07:18:11;;;;;;;12.23;3.95;;;;;;;14.22;66.02;97598.03;2082193;28;20192;-66
2023/10/06 07:19:17;;;;;;;6.57;3.40;;;;;;;14.74;65.37;97604.50;2081430;28;20228;-66
2023/10/06 07:20:20;;;;;;;12.05;4.70;;;;;;;14.88;64.48;97603.84;2078795;28;20228;-66
2023/10/06 07:21:22;;;;;;;14.40;4.22;;;;;;;14.91;64.69;97601.94;2080729;28;20198;-66
2023/10/06 07:22:31;;;;;;;14.35;4.30;;;;;;;15.51;62.72;97606.09;2081526;28;20216;-66
2023/10/06 07:23:34;;;;;;;12.07;4.18;;;;;;;15.15;62.51;97605.19;2081734;28;20276;-66
2023/10/06 07:24:36;;;;;;;12.13;4.63;;;;;;;15.74;61.81;97607.56;2080563;28;20556;-67
2023/10/06 07:25:38;;;;;;;7.22;3.95;;;;;;;16.09;60.87;97615.50;2082519;28;20683;-66
2023/10/06 07:26:42;;;;;;;8.45;3.83;;;;;;;15.74;61.37;97615.47;2083080;28;20722;-66
2023/10/06 07:27:49;;;;;;;12.80;4.80;;;;;;;15.48;62.22;97612.38;2082143;28;20190;-66
2023/10/06 07:28:52;;;;;;;15.70;5.35;;;;;;;15.44;62.78;97610.81;2083678;28;20197;-66
2023/10/06 07:29:54;;;;;;;13.88;4.35;;;;;;;15.11;64.17;97614.16;2082242;28;20220;-66
2023/10/06 07:30:56;;;;;;;11.95;4.65;;;;;;;15.26;64.53;97609.06;2081172;28;20204;-66
2023/10/06 07:32:00;;;;;;;8.02;4.22;;;;;;;15.94;63.37;97611.88;2081878;28;20739;-67
2023/10/06 07:33:08;;;;;;;10.65;4.38;;;;;;;16.57;60.65;97610.38;2082208;28;20204;-66
2023/10/06 07:34:11;;;;;;;9.52;3.70;;;;;;;16.38;61.56;97612.28;2081887;28;20205;-66
2023/10/06 07:35:18;;;;;;;9.52;3.90;;;;;;;16.40;60.54;97615.69;2082121;28;20204;-67
2023/10/06 07:36:20;;;;;;;11.23;4.13;;;;;;;16.52;60.68;97615.03;2078686;28;20255;-67
2023/10/06 07:37:21;;;;;;;11.65;4.40;;;;;;;16.83;60.28;97613.38;2079463;28;20201;-66
2023/10/06 07:38:24;;;;;;;10.35;4.10;;;;;;;16.78;60.49;97618.88;2082430;28;20211;-67
2023/10/06 07:39:26;;;;;;;8.65;4.32;;;;;;;17.04;60.41;97618.44;2079945;28;20272;-67
2023/10/06 07:40:27;;;;;;;11.85;4.18;;;;;;;17.45;59.65;97616.09;2082704;28;20192;-66
2023/10/06 07:41:30;;;;;;;17.50;4.45;;;;;;;17.50;59.22;97609.72;2082387;28;20707;-66
2023/10/06 07:42:32;;;;;;;15.57;4.32;;;;;;;17.57;59.60;97621.63;2082420;28;20255;-67
2023/10/06 07:43:33;;;;;;;11.98;4.85;;;;;;;18.31;57.47;97612.03;2081109;28;20197;-67
2023/10/06 07:44:35;;;;;;;12.40;3.80;;;;;;;18.57;56.63;97609.56;2080337;28;20744;-69
2023/10/06 07:45:37;;;;;;;7.25;3.83;;;;;;;18.54;57.10;97615.06;2082022;28;20212;-68
2023/10/06 07:46:38;;;;;;;13.95;4.10;;;;;;;18.31;57.20;97616.44;2082573;28;20280;-68
2023/10/06 07:47:42;;;;;;;13.80;5.10;;;;;;;18.74;56.79;97617.31;2082314;28;20216;-67
2023/10/06 07:48:50;;;;;;;12.55;4.47;;;;;;;18.99;55.65;97609.66;2082613;28;20228;-68
2023/10/06 07:49:51;;;;;;;11.85;4.00;;;;;;;18.89;55.99;97612.00;2079234;28;20225;-68
2023/10/06 07:50:53;;;;;;;11.07;3.97;;;;;;;19.06;55.71;97619.75;2081748;28;20633;-68
2023/10/06 07:51:55;;;;;;;11.10;4.50;;;;;;;18.83;56.37;97609.72;2082210;28;20845;-68
2023/10/06 07:52:57;;;;;;;10.02;4.47;;;;;;;19.43;55.03;97613.88;2080859;28;20197;-68
2023/10/06 07:53:59;;;;;;;10.57;4.60;;;;;;;19.22;55.33;97616.97;2081666;28;20192;-67
2023/10/06 07:55:00;;;;;;;12.68;4.50;;;;;;;19.24;55.40;97614.22;2082135;28;20197;-68
2023/10/06 07:56:08;;;;;;;12.00;4.10;;;;;;;19.31;55.85;97615.53;2078340;28;20567;-68
2023/10/06 07:57:12;;;;;;;9.07;4.63;;;;;;;19.31;55.45;97614.66;2073460;28;20206;-68
2023/10/06 07:58:15;;;;;;;9.55;5.22;;;;;;;19.56;54.86;97611.25;2078349;28;20736;-68
2023/10/06 07:59:17;;;;;;;14.38;4.80;;;;;;;19.33;55.64;97610.13;2077398;28;20666;-68
2023/10/06 08:00:30;;;;;;;13.07;5.50;;;;;;;19.08;55.49;97611.69;2077785;28;20898;-68
2023/10/06 08:01:34;;;;;;;11.52;5.35;;;;;;;19.65;54.43;97609.81;2074192;28;20225;-68
2023/10/06 08:02:39;;;;;;;12.60;5.20;;;;;;;19.51;54.43;97608.91;2076841;28;20193;-68
2023/10/06 08:03:41;;;;;;;18.90;6.05;;;;;;;19.35;54.83;97606.44;2077815;28;20232;-68
2023/10/06 08:04:43;;;;;;;17.17;6.10;;;;;;;19.16;55.43;97609.41;2076777;28;20248;-68
2023/10/06 08:05:44;;;;;;;17.15;6.25;;;;;;;19.37;54.84;97607.16;2075317;28;20217;-68
2023/10/06 08:06:46;;;;;;;14.35;5.63;;;;;;;19.25;55.43;97606.16;2074109;28;20206;-67
2023/10/06 08:07:47;;;;;;;12.20;5.45;;;;;;;19.31;54.85;97607.59;2075161;28;20721;-68
2023/10/06 08:08:49;;;;;;;13.45;5.40;;;;;;;19.70;54.88;97607.69;2075713;28;20236;-68
2023/10/06 08:09:51;;;;;;;14.55;5.60;;;;;;;19.60;54.48;97601.31;2075284;28;20225;-67
2023/10/06 08:10:54;;;;;;;16.10;5.05;;;;;;;19.36;55.42;97601.97;2076312;28;20735;-67
2023/10/06 08:11:55;;;;;;;17.73;6.10;;;;;;;19.48;55.22;97603.00;2076629;28;20197;-68
2023/10/06 08:13:00;;;;;;;13.82;5.25;;;;;;;19.46;55.47;97603.06;2076557;28;20571;-67
2023/10/06 08:14:03;;;;;;;13.93;5.20;;;;;;;19.65;55.18;97607.16;2076514;28;20289;-67
2023/10/06 08:15:09;;;;;;;13.82;5.45;;;;;;;19.47;55.24;97607.41;2076551;28;20198;-67
2023/10/06 08:16:12;;;;;;;18.67;6.00;;;;;;;19.52;55.49;97599.19;2076857;28;20200;-67
2023/10/06 08:17:14;;;;;;;11.85;5.38;;;;;;;19.62;55.79;97597.63;2076337;28;20597;-68
2023/10/06 08:18:15;;;;;;;17.17;6.20;;;;;;;20.06;54.34;97598.25;2076448;28;20252;-68
2023/10/06 08:19:17;;;;;;;13.70;5.57;;;;;;;19.86;54.46;97604.91;2077143;28;20633;-67
2023/10/06 08:20:20;;;;;;;13.73;6.05;;;;;;;19.84;54.92;97599.69;2076962;28;20728;-67
2023/10/06 08:21:22;;;;;;;12.02;5.30;;;;;;;19.65;54.85;97594.75;2072699;28;20884;-67
2023/10/06 08:22:25;;;;;;;18.52;5.75;;;;;;;19.68;55.21;97602.50;2073585;28;20198;-68
2023/10/06 08:23:34;;;;;;;12.25;6.28;;;;;;;20.36;54.14;97597.94;2076483;28;20276;-67
2023/10/06 08:24:36;;;;;;;15.70;6.53;;;;;;;20.21;54.66;97601.66;2076028;28;20248;-67
2023/10/06 08:25:38;;;;;;;21.10;6.72;;;;;;;20.28;54.12;97592.31;2076090;28;20202;-67
2023/10/06 08:27:00;;;;;;;18.40;6.65;;;;;;;20.27;54.21;97603.03;2075988;28;20197;-67
2023/10/06 08:28:04;;;;;;;17.90;7.22;;;;;;;19.87;55.10;97604.81;2076611;28;20230;-67
2023/10/06 08:29:06;;;;;;;15.20;5.50;;;;;;;20.17;54.95;97601.00;2075841;28;20229;-67
2023/10/06 08:30:15;;;;;;;15.02;6.88;;;;;;;20.54;54.14;97600.25;2077260;28;20201;-67
2023/10/06 08:31:17;;;;;;;13.90;5.70;;;;;;;20.39;54.33;97610.13;2074109;28;20198;-67
2023/10/06 08:32:19;;;;;;;13.75;5.65;;;;;;;21.04;52.76;97605.63;2072598;28;20202;-67
2023/10/06 08:33:25;;;;;;;14.20;5.25;;;;;;;21.24;52.29;97611.28;2073187;28;20213;-67
2023/10/06 08:34:29;;;;;;;16.35;5.88;;;;;;;21.05;53.19;97609.94;2073654;28;20221;-67
2023/10/06 08:35:31;;;;;;;21.50;6.25;;;;;;;20.96;53.33;97602.66;2075193;28;20201;-67
2023/10/06 08:36:33;;;;;;;14.05;5.57;;;;;;;20.85;53.26;97603.44;2077283;28;20202;-67
2023/10/06 08:37:34;;;;;;;21.27;6.47;;;;;;;20.98;52.73;97606.91;2077391;28;20204;-67
2023/10/06 08:38:36;;;;;;;23.80;6.20;;;;;;;20.66;52.84;97596.75;2077080;28;20201;-66
2023/10/06 08:39:42;;;;;;;14.23;6.13;;;;;;;20.70;52.90;97600.03;2072426;28;20705;-67
2023/10/06 08:40:44;;;;;;;11.88;5.88;;;;;;;21.56;51.34;97600.13;2081474;28;20200;-67
2023/10/06 08:41:49;;;;;;;16.45;5.68;;;;;;;20.96;51.81;97603.53;2082793;28;20197;-67
2023/10/06 08:42:58;;;;;;;17.48;6.65;;;;;;;20.77;52.23;97605.78;2074087;28;20952;-67
2023/10/06 08:44:03;;;;;;;15.02;6.00;;;;;;;21.28;51.85;97602.13;2074909;28;20202;-67
2023/10/06 08:45:06;;;;;;;18.23;6.85;;;;;;;20.97;51.80;97607.84;2074546;28;20245;-67
2023/10/06 08:46:13;;;;;;;15.88;5.72;;;;;;;21.36;51.94;97602.44;2074083;28;20695;-67
2023/10/06 08:47:15;;;;;;;14.05;5.70;;;;;;;21.51;51.17;97606.59;2073345;28;20579;-66
2023/10/06 08:48:32;;;;;;;17.50;6.00;;;;;;;21.28;51.86;97602.13;2074577;28;20219;-66
2023/10/06 08:49:34;;;;;;;13.75;4.63;;;;;;;21.74;50.76;97600.56;2076444;28;20220;-66
2023/10/06 08:50:37;;;;;;;12.55;5.05;;;;;;;22.23;50.26;97598.63;2072540;28;20281;-66
2023/10/06 08:51:40;;;;;;;15.18;5.60;;;;;;;21.57;50.68;97612.44;2074678;28;20535;-66
2023/10/06 08:52:45;;;;;;;19.75;5.95;;;;;;;21.48;50.95;97611.28;2078076;28;20201;-66
2023/10/06 08:53:49;;;;;;;14.93;5.80;;;;;;;21.30;51.57;97613.50;2076777;28;20197;-66
2023/10/06 08:54:50;;;;;;;14.63;5.88;;;;;;;21.13;51.41;97612.91;2075286;28;20247;-67
2023/10/06 08:55:52;;;;;;;13.80;5.53;;;;;;;21.63;51.39;97615.50;2072479;28;20205;-66
2023/10/06 08:56:53;;;;;;;19.63;6.47;;;;;;;22.23;50.36;97612.75;2074186;28;20205;-67
2023/10/06 08:57:58;;;;;;;15.43;6.32;;;;;;;22.28;49.90;97615.94;2072546;28;20251;-66
2023/10/06 08:59:05;;;;;;;12.02;5.22;;;;;;;22.16;50.01;97616.88;2076422;28;20201;-66
2023/10/06 09:00:07;;;;;;;21.15;6.68;;;;;;;22.19;49.85;97613.97;2072312;28;20198;-66
2023/10/06 09:01:12;;;;;;;13.90;5.40;;;;;;;21.92;50.30;97614.28;2075112;28;20198;-66
2023/10/06 09:02:16;;;;;;;12.40;6.22;;;;;;;22.10;49.89;97601.41;2075158;28;20193;-66
2023/10/06 09:03:20;;;;;;;15.15;6.05;;;;;;;22.22;49.51;97604.91;2075676;28;20225;-67
2023/10/06 09:04:22;;;;;;;13.27;5.57;;;;;;;23.43;47.69;97604.31;2075444;28;20237;-66
2023/10/06 09:05:23;;;;;;;14.35;5.93;;;;;;;23.42;47.90;97602.59;2074905;28;20200;-66
2023/10/06 09:06:25;;;;;;;11.85;5.35;;;;;;;23.02;48.23;97608.47;2075401;28;20212;-67
2023/10/06 09:07:27;;;;;;;15.98;5.60;;;;;;;22.40;48.97;97608.84;2075749;28;20212;-66
2023/10/06 09:08:39;;;;;;;13.23;5.90;;;;;;;22.39;48.93;97607.16;2074328;28;20204;-66
2023/10/06 09:09:41;;;;;;;15.90;6.65;;;;;;;22.47;49.64;97602.09;2075109;28;20672;-66
2023/10/06 09:10:56;;;;;;;11.88;5.30;;;;;;;21.97;49.82;97609.47;2078086;28;20284;-66
2023/10/06 09:11:58;;;;;;;20.75;6.80;;;;;;;21.79;50.04;97606.41;2076537;28;20204;-67
2023/10/06 09:13:02;;;;;;;12.00;5.35;;;;;;;21.78;50.47;97604.69;2072336;28;20202;-66
2023/10/06 09:14:07;;;;;;;13.75;6.10;;;;;;;22.48;49.82;97603.75;2073243;28;20198;-66
2023/10/06 09:15:16;;;;;;;14.30;6.05;;;;;;;22.44;49.18;97602.31;2076316;28;20824;-66
2023/10/06 09:16:18;;;;;;;18.95;5.95;;;;;;;23.26;48.35;97603.88;2075736;28;20194;-66
2023/10/06 09:17:30;;;;;;;12.35;4.65;;;;;;;23.98;47.15;97598.03;2075930;28;20656;-67
2023/10/06 09:18:38;;;;;;;11.57;5.68;;;;;;;23.84;46.81;97593.84;2078814;28;20640;-67
2023/10/06 09:19:47;;;;;;;11.80;4.80;;;;;;;24.12;46.65;97595.03;2080804;28;20624;-66
2023/10/06 09:20:50;;;;;;;15.23;6.05;;;;;;;23.36;47.54;97600.44;2075637;28;20715;-67
2023/10/06 09:22:04;;;;;;;14.65;5.53;;;;;;;24.27;46.53;97593.72;2078715;28;20212;-67
2023/10/06 09:23:06;;;;;;;12.65;5.80;;;;;;;24.19;45.71;97590.88;2075785;28;20194;-67
2023/10/06 09:24:19;;;;;;;10.10;4.45;;;;;;;22.83;48.59;97594.81;2075361;28;20198;-66
2023/10/06 09:25:21;;;;;;;14.20;5.65;;;;;;;25.14;45.30;97598.72;2075487;28;20208;-66
2023/10/06 09:26:27;;;;;;;15.45;5.90;;;;;;;25.24;44.38;97591.56;2076297;28;20738;-66
2023/10/06 09:27:29;;;;;;;11.48;5.22;;;;;;;24.35;45.84;97598.38;2076452;28;20185;-67
2023/10/06 09:28:31;;;;;;;17.92;6.38;;;;;;;24.77;44.94;97597.50;2075512;28;20229;-67
2023/10/06 09:29:33;;;;;;;12.00;5.57;;;;;;;24.96;44.83;97596.72;2071996;28;20217;-66
2023/10/06 09:31:00;;;;;;;10.45;5.47;;;;;;;25.40;44.31;97589.22;2073364;28;20197;-67
2023/10/06 09:32:20;;;;;;;13.93;5.78;;;;;;;24.58;45.51;97583.06;2076081;28;20201;-66
2023/10/06 09:33:27;;;;;;;10.68;5.25;;;;;;;25.21;45.02;97584.69;2076088;28;20197;-66
2023/10/06 09:34:32;;;;;;;11.18;5.40;;;;;;;25.38;44.81;97582.34;2075230;28;20249;-67
2023/10/06 09:35:34;;;;;;;12.23;6.13;;;;;;;24.61;45.07;97580.13;2076016;28;20193;-66
2023/10/06 09:36:35;;;;;;;15.50;5.95;;;;;;;24.60;44.69;97583.75;2075443;28;20712;-67
2023/10/06 09:37:46;;;;;;;13.68;5.88;;;;;;;24.79;44.84;97584.84;2076019;28;20190;-67
2023/10/06 09:38:48;;;;;;;14.50;5.47;;;;;;;25.36;44.59;97578.97;2076092;28;20197;-67
2023/10/06 09:39:59;;;;;;;12.65;5.00;;;;;;;25.93;43.05;97589.81;2075727;28;20271;-67
2023/10/06 09:41:07;;;;;;;16.30;5.75;;;;;;;26.10;42.57;97579.41;2075814;28;20247;-67
2023/10/06 09:42:09;;;;;;;13.43;5.40;;;;;;;25.14;43.63;97578.22;2077466;28;20197;-67
2023/10/06 09:43:15;;;;;;;14.02;4.97;;;;;;;24.89;44.74;97584.91;2075376;28;20197;-66
2023/10/06 09:44:20;;;;;;;10.80;5.10;;;;;;;25.52;43.08;97583.75;2075406;28;20741;-66
2023/10/06 09:45:24;;;;;;;12.68;5.10;;;;;;;26.85;40.99;97579.44;2075817;28;20316;-66
2023/10/06 09:46:27;;;;;;;11.93;5.03;;;;;;;25.83;41.92;97579.13;2075749;28;20244;-66
2023/10/06 09:47:31;;;;;;;10.93;4.70;;;;;;;25.15;42.60;97579.88;2075427;28;20225;-66
2023/10/06 09:48:35;;;;;;;12.23;5.55;;;;;;;24.41;43.91;97581.00;2074406;28;20201;-66
2023/10/06 09:49:39;;;;;;;14.10;4.10;;;;;;;24.71;43.99;97571.31;2074080;28;20687;-66
2023/10/06 09:50:50;;;;;;;11.98;5.40;;;;;;;25.09;43.53;97578.63;2074111;28;20251;-66
2023/10/06 09:51:52;;;;;;;10.90;5.10;;;;;;;25.83;42.02;97572.94;2074626;28;20201;-66
2023/10/06 09:53:00;;;;;;;14.02;5.28;;;;;;;25.72;42.72;97572.06;2073943;28;20710;-66
2023/10/06 09:54:04;;;;;;;14.30;5.17;;;;;;;25.57;43.05;97573.47;2073389;28;20297;-66
2023/10/06 09:55:06;;;;;;;10.82;5.18;;;;;;;26.04;41.77;97564.72;2073757;28;20427;-67
2023/10/06 09:56:11;;;;;;;14.05;5.05;;;;;;;26.02;42.39;97561.34;2074716;28;20224;-67
2023/10/06 09:57:13;;;;;;;11.90;4.55;;;;;;;25.67;42.61;97565.47;2076183;28;20198;-67
2023/10/06 09:58:17;;;;;;;9.98;4.47;;;;;;;25.54;42.95;97574.59;2072211;28;20201;-67
2023/10/06 09:59:18;;;;;;;10.20;5.45;;;;;;;25.70;42.58;97570.53;2073768;28;20680;-67
2023/10/06 10:00:21;;;;;;;13.20;5.30;;;;;;;24.89;43.51;97568.88;2076509;28;20201;-67
2023/10/06 10:01:25;;;;;;;12.77;4.90;;;;;;;24.75;43.54;97570.94;2071975;28;20304;-67
2023/10/06 10:02:32;;;;;;;11.07;4.93;;;;;;;25.97;42.35;97560.94;2072003;28;20193;-67
2023/10/06 10:03:37;;;;;;;14.48;4.57;;;;;;;24.75;44.14;97568.25;2071712;28;20660;-67
2023/10/06 10:04:39;;;;;;;12.32;5.57;;;;;;;24.26;44.24;97560.03;2074159;28;20630;-67
2023/10/06 10:05:42;;;;;;;15.13;5.80;;;;;;;24.70;44.30;97570.50;2077252;28;20288;-67
2023/10/06 10:06:44;;;;;;;15.52;5.70;;;;;;;25.08;43.61;97563.56;2072006;28;20244;-67
2023/10/06 10:07:49;;;;;;;11.00;5.10;;;;;;;24.97;43.84;97568.19;2072268;28;20236;-67
2023/10/06 10:08:51;;;;;;;13.32;4.28;;;;;;;24.87;44.33;97558.31;2072125;28;20292;-67
2023/10/06 10:09:53;;;;;;;12.30;5.47;;;;;;;25.26;44.13;97561.06;2073172;28;20228;-68
2023/10/06 10:10:56;;;;;;;12.02;4.85;;;;;;;25.16;44.26;97568.22;2074302;28;20205;-68
2023/10/06 10:12:29;;;;;;;11.57;5.00;;;;;;;25.03;44.04;97565.81;2074382;28;20197;-68
2023/10/06 10:13:44;;;;;;;10.57;3.97;;;;;;;25.80;43.36;97558.00;2074282;28;20193;-67
2023/10/06 10:14:52;;;;;;;10.05;4.10;;;;;;;25.42;43.18;97557.88;2073794;28;20332;-67
2023/10/06 10:16:16;;;;;;;13.60;5.53;;;;;;;26.40;42.84;97559.59;2075842;28;20202;-67
2023/10/06 10:17:18;;;;;;;10.13;4.85;;;;;;;26.66;41.88;97566.94;2074523;28;20198;-67
2023/10/06 10:18:26;;;;;;;14.23;4.95;;;;;;;25.83;43.08;97573.75;2074647;28;20721;-67
2023/10/06 10:19:28;;;;;;;11.63;5.18;;;;;;;25.87;43.06;97563.63;2073226;28;20221;-67
2023/10/06 10:20:32;;;;;;;11.45;5.45;;;;;;;25.69;43.21;97566.19;2079148;28;20201;-67
2023/10/06 10:21:36;;;;;;;12.45;4.90;;;;;;;25.30;43.42;97558.94;2078819;28;20729;-67
2023/10/06 10:22:40;;;;;;;11.75;4.80;;;;;;;25.49;43.95;97562.66;2074946;28;20535;-67
2023/10/06 10:23:45;;;;;;;13.65;5.60;;;;;;;25.86;43.02;97559.25;2074721;28;20198;-67
2023/10/06 10:24:47;;;;;;;12.30;5.05;;;;;;;26.13;42.13;97563.03;2071481;28;20281;-68
2023/10/06 10:25:51;;;;;;;10.73;5.10;;;;;;;27.02;41.46;97559.03;2075095;28;20197;-67
2023/10/06 10:26:53;;;;;;;10.30;5.32;;;;;;;27.17;41.62;97560.22;2071810;28;20217;-68
2023/10/06 10:28:19;;;;;;;9.38;4.50;;;;;;;26.59;42.06;97550.63;2073860;28;20202;-67
2023/10/06 10:29:24;;;;;;;9.65;4.30;;;;;;;26.82;41.54;97558.31;2073225;28;20224;-67
2023/10/06 10:30:56;;;;;;;10.38;4.47;;;;;;;26.82;40.87;97547.59;2074451;28;20193;-67
2023/10/06 10:32:22;;;;;;;11.68;4.80;;;;;;;26.51;42.42;97546.03;2075899;28;20243;-67
2023/10/06 10:33:29;;;;;;;9.02;3.92;;;;;;;26.21;41.91;97552.47;2075333;28;20201;-67
2023/10/06 10:34:38;;;;;;;9.15;4.60;;;;;;;26.91;41.49;97541.34;2074025;28;20307;-67
2023/10/06 10:36:15;;;;;;;8.52;4.18;;;;;;;27.15;41.00;97543.44;2075045;28;20197;-67
2023/10/06 10:37:17;;;;;;;10.05;5.00;;;;;;;26.76;41.17;97542.84;2075596;28;20265;-66
2023/10/06 10:38:18;;;;;;;12.48;4.80;;;;;;;27.07;40.73;97548.72;2075833;28;20196;-66
2023/10/06 10:39:22;;;;;;;12.70;5.15;;;;;;;26.97;40.96;97545.25;2074635;28;20225;-67
2023/10/06 10:40:25;;;;;;;9.63;4.50;;;;;;;27.50;40.07;97546.31;2075383;28;20327;-66
2023/10/06 10:41:33;;;;;;;17.13;4.97;;;;;;;27.74;40.02;97544.84;2075833;28;20193;-67
2023/10/06 10:42:40;;;;;;;9.23;4.43;;;;;;;27.87;40.19;97542.59;2071808;28;20228;-66
2023/10/06 10:43:45;;;;;;;12.55;4.60;;;;;;;27.74;39.76;97540.31;2073717;28;20269;-66
2023/10/06 10:44:48;;;;;;;10.43;4.82;;;;;;;27.41;39.50;97541.88;2074517;28;20332;-66
2023/10/06 10:45:52;;;;;;;10.07;5.32;;;;;;;26.83;39.87;97535.88;2076074;28;20726;-66
2023/10/06 10:46:56;;;;;;;12.07;6.30;;;;;;;26.20;41.11;97535.56;2072707;28;20645;-66
2023/10/06 10:47:58;;;;;;;9.38;4.82;;;;;;;26.38;41.32;97529.44;2074189;28;20240;-68
2023/10/06 10:49:01;;;;;;;10.52;5.28;;;;;;;26.04;41.26;97522.75;2075362;28;20649;-67
2023/10/06 10:50:05;;;;;;;11.88;5.35;;;;;;;25.80;41.84;97531.28;2071575;28;20194;-67
2023/10/06 10:51:11;;;;;;;14.20;5.53;;;;;;;25.81;41.77;97529.41;2074161;28;20196;-67
2023/10/06 10:52:14;;;;;;;11.18;5.93;;;;;;;25.44;41.51;97522.97;2071534;28;20651;-68
2023/10/06 10:53:22;;;;;;;12.82;6.40;;;;;;;25.88;41.27;97522.53;2072254;28;20202;-67
2023/10/06 10:54:28;;;;;;;12.88;5.30;;;;;;;26.35;41.14;97519.88;2073099;28;20718;-68
2023/10/06 10:55:31;;;;;;;11.15;5.20;;;;;;;26.22;41.03;97519.34;2078823;28;20189;-68
2023/10/06 10:56:36;;;;;;;13.05;5.88;;;;;;;26.34;40.73;97517.34;2077864;28;20193;-67
2023/10/06 10:57:44;;;;;;;13.50;6.65;;;;;;;25.48;41.68;97519.03;2075831;28;20649;-68
2023/10/06 10:58:47;;;;;;;11.85;5.63;;;;;;;25.52;41.89;97523.13;2075671;28;20194;-68
2023/10/06 11:01:40;;;;;;;16.52;5.50;;;;;;;26.66;40.65;97513.38;2072731;28;20197;-68
2023/10/06 11:03:00;;;;;;;11.55;5.72;;;;;;;26.85;40.15;97509.78;2073727;28;20201;-67
2023/10/06 11:04:30;;;;;;;13.93;5.80;;;;;;;26.01;40.82;97511.50;2074226;28;20202;-68
2023/10/06 11:05:33;;;;;;;12.35;5.05;;;;;;;25.96;40.59;97503.91;2074193;28;20197;-67
2023/10/06 11:06:37;;;;;;;14.07;6.22;;;;;;;25.79;40.46;97499.28;2076038;28;20198;-67
2023/10/06 11:07:39;;;;;;;14.40;6.53;;;;;;;27.51;39.89;97497.06;2076270;28;20260;-68
2023/10/06 11:08:40;;;;;;;15.95;6.45;;;;;;;26.39;39.28;97499.00;2071691;28;20197;-67
2023/10/06 11:09:48;;;;;;;18.42;5.80;;;;;;;26.85;39.64;97493.72;2072823;28;20240;-67
2023/10/06 11:10:58;;;;;;;13.65;5.85;;;;;;;26.48;39.98;97497.28;2072647;28;20197;-68
2023/10/06 11:12:09;;;;;;;14.93;5.95;;;;;;;26.13;39.66;97501.50;2074937;28;20204;-68
2023/10/06 11:13:26;;;;;;;14.05;5.72;;;;;;;26.39;39.40;97499.00;2075013;28;20787;-68
2023/10/06 11:14:45;;;;;;;14.23;5.75;;;;;;;27.19;39.41;97501.09;2074853;28;20271;-68
2023/10/06 11:15:50;;;;;;;11.43;5.85;;;;;;;28.26;38.68;97495.75;2077017;28;20668;-68
2023/10/06 11:16:53;;;;;;;15.90;6.90;;;;;;;29.08;37.15;97496.06;2075331;28;20700;-67
2023/10/06 11:17:56;;;;;;;18.10;6.40;;;;;;;29.13;36.76;97496.41;2071811;28;20285;-68
2023/10/06 11:19:03;;;;;;;12.13;5.68;;;;;;;28.73;37.17;97497.16;2072145;28;20612;-67
2023/10/06 11:20:40;;;;;;;14.02;5.03;;;;;;;27.71;37.87;97489.66;2073290;28;20197;-67
2023/10/06 11:21:34;;;;;;;12.68;5.40;;;;;;;27.82;38.04;97492.09;2073590;28;20834;-68
2023/10/06 11:22:35;;;;;;;12.80;5.80;;;;;;;28.07;37.50;97489.59;2071499;28;20605;-67
2023/10/06 11:23:43;;;;;;;17.75;6.90;;;;;;;27.36;37.83;97491.34;2072597;28;20271;-67
2023/10/06 11:24:48;;;;;;;15.85;5.80;;;;;;;28.02;37.15;97494.56;2073908;28;20320;-67
2023/10/06 11:25:50;;;;;;;12.60;5.55;;;;;;;28.75;38.19;97498.66;2074100;28;20254;-68
2023/10/06 11:26:52;;;;;;;11.98;5.43;;;;;;;28.75;37.29;97493.28;2074251;28;20264;-68
2023/10/06 11:28:03;;;;;;;11.80;6.05;;;;;;;29.39;35.81;97486.53;2074957;28;20206;-68
2023/10/06 11:29:04;;;;;;;10.80;5.10;;;;;;;30.05;36.54;97490.03;2073772;28;20284;-67
2023/10/06 11:30:08;;;;;;;11.93;5.83;;;;;;;29.87;34.93;97486.69;2075617;28;20438;-68
2023/10/06 11:31:12;;;;;;;16.83;6.53;;;;;;;28.30;36.75;97489.03;2074332;28;20500;-68
2023/10/06 11:32:13;;;;;;;10.70;5.67;;;;;;;27.45;39.43;97484.25;2074914;28;20443;-68
2023/10/06 11:33:18;;;;;;;10.40;5.37;;;;;;;27.76;38.25;97487.34;2074697;28;20462;-68
2023/10/06 11:34:20;;;;;;;14.07;5.97;;;;;;;27.59;39.58;97497.13;2075573;28;20462;-68
2023/10/06 11:35:21;;;;;;;13.00;5.60;;;;;;;28.28;36.82;97483.00;2075313;28;20885;-69
2023/10/06 11:36:23;;;;;;;8.17;5.13;;;;;;;28.31;37.62;97482.69;2073461;28;20458;-68
2023/10/06 11:37:25;;;;;;;11.20;5.50;;;;;;;28.81;37.31;97487.28;2073806;28;20934;-68
2023/10/06 11:38:27;;;;;;;13.17;5.73;;;;;;;29.01;36.46;97478.91;2076435;28;20803;-69
2023/10/06 11:39:29;;;;;;;13.27;5.97;;;;;;;29.30;36.68;97485.69;2075901;28;20541;-68
2023/10/06 11:40:32;;;;;;;11.03;5.57;;;;;;;28.79;37.20;97491.13;2077029;28;20415;-68
2023/10/06 11:41:33;;;;;;;9.13;5.30;;;;;;;27.66;39.37;97483.94;2074945;28;20953;-68
2023/10/06 11:42:40;;;;;;;10.93;5.30;;;;;;;28.32;38.28;97487.88;2074771;28;20423;-68
2023/10/06 11:43:52;;;;;;;9.70;4.50;;;;;;;28.29;37.45;97484.66;2076605;28;20426;-68
2023/10/06 11:44:56;;;;;;;12.10;5.70;;;;;;;28.52;37.33;97482.28;2076961;28;20466;-68
2023/10/06 11:46:02;;;;;;;13.23;6.07;;;;;;;28.24;36.62;97479.81;2077374;28;20438;-69
2023/10/06 11:47:04;;;;;;;11.23;4.70;;;;;;;28.08;36.78;97477.03;2073158;28;20813;-68